sensor_id;sensor_type;location;lat;lon;timestamp;pressure;altitude;pressure_sealevel;temperature;humidity
4449;BME280;2237;51.870;6.160;2024-02-14T00:00:32;101257.81;;;9.77;100.00
4449;BME280;2237;51.870;6.160;2024-02-14T00:02:59;101255.09;;;9.86;100.00
4449;BME280;2237;51.870;6.160;2024-02-14T00:05:25;101260.09;;;10.01;100.00
4449;BME280;2237;51.870;6.160;2024-02-14T00:07:52;101260.22;;;9.92;100.00
4449;BME280;2237;51.870;6.160;2024-02-14T00:10:19;101258.53;;;9.87;100.00
4449;BME280;2237;51.870;6.160;2024-02-14T00:12:45;101249.94;;;9.83;100.00
4449;BME280;2237;51.870;6.160;2024-02-14T00:15:13;101243.88;;;9.83;100.00
4449;BME280;2237;51.870;6.160;2024-02-14T00:17:39;101256.00;;;9.84;100.00
4449;BME280;2237;51.870;6.160;2024-02-14T00:20:06;101253.41;;;9.84;100.00
4449;BME280;2237;51.870;6.160;2024-02-14T00:22:33;101247.22;;;9.91;100.00
4449;BME280;2237;51.870;6.160;2024-02-14T00:25:00;101255.09;;;9.86;100.00
4449;BME280;2237;51.870;6.160;2024-02-14T00:27:26;101248.22;;;9.82;100.00
4449;BME280;2237;51.870;6.160;2024-02-14T00:29:53;101254.13;;;9.95;100.00
4449;BME280;2237;51.870;6.160;2024-02-14T00:32:21;101248.13;;;9.87;100.00
4449;BME280;2237;51.870;6.160;2024-02-14T00:34:47;101239.66;;;9.74;100.00
4449;BME280;2237;51.870;6.160;2024-02-14T00:37:16;101234.38;;;9.80;100.00
4449;BME280;2237;51.870;6.160;2024-02-14T00:39:42;101239.56;;;9.80;100.00
4449;BME280;2237;51.870;6.160;2024-02-14T00:42:08;101234.28;;;9.85;100.00
4449;BME280;2237;51.870;6.160;2024-02-14T00:44:35;101222.09;;;9.90;100.00
4449;BME280;2237;51.870;6.160;2024-02-14T00:47:01;101214.06;;;10.05;100.00
4449;BME280;2237;51.870;6.160;2024-02-14T00:49:29;101209.78;;;10.04;100.00
4449;BME280;2237;51.870;6.160;2024-02-14T00:51:55;101209.81;;;10.01;100.00
4449;BME280;2237;51.870;6.160;2024-02-14T00:54:22;101208.78;;;10.11;100.00
4449;BME280;2237;51.870;6.160;2024-02-14T00:56:48;101214.81;;;10.16;100.00
4449;BME280;2237;51.870;6.160;2024-02-14T00:59:15;101207.06;;;10.10;100.00
4449;BME280;2237;51.870;6.160;2024-02-14T01:01:43;101210.59;;;10.04;100.00
4449;BME280;2237;51.870;6.160;2024-02-14T01:04:10;101219.41;;;9.96;100.00
4449;BME280;2237;51.870;6.160;2024-02-14T01:06:37;101203.00;;;9.91;100.00
4449;BME280;2237;51.870;6.160;2024-02-14T01:09:04;101197.78;;;9.92;100.00
4449;BME280;2237;51.870;6.160;2024-02-14T01:11:31;101213.28;;;10.00;100.00
4449;BME280;2237;51.870;6.160;2024-02-14T01:13:57;101206.44;;;9.94;100.00
4449;BME280;2237;51.870;6.160;2024-02-14T01:16:25;101215.97;;;9.94;100.00
4449;BME280;2237;51.870;6.160;2024-02-14T01:18:52;101209.78;;;10.02;100.00
4449;BME280;2237;51.870;6.160;2024-02-14T01:21:19;101206.38;;;9.96;100.00
4449;BME280;2237;51.870;6.160;2024-02-14T01:23:46;101214.03;;;10.08;100.00
4449;BME280;2237;51.870;6.160;2024-02-14T01:26:12;101208.78;;;10.12;100.00
4449;BME280;2237;51.870;6.160;2024-02-14T01:28:39;101209.66;;;10.11;100.00
4449;BME280;2237;51.870;6.160;2024-02-14T01:31:05;101212.19;;;10.17;100.00
4449;BME280;2237;51.870;6.160;2024-02-14T01:33:32;101204.31;;;10.22;100.00
4449;BME280;2237;51.870;6.160;2024-02-14T01:35:59;101210.41;;;10.21;100.00
4449;BME280;2237;51.870;6.160;2024-02-14T01:38:26;101207.00;;;10.16;100.00
4449;BME280;2237;51.870;6.160;2024-02-14T01:40:52;101206.97;;;10.19;100.00
4449;BME280;2237;51.870;6.160;2024-02-14T01:43:19;101211.28;;;10.20;100.00
4449;BME280;2237;51.870;6.160;2024-02-14T01:45:47;101204.31;;;10.22;100.00
4449;BME280;2237;51.870;6.160;2024-02-14T01:48:14;101206.09;;;10.20;100.00
4449;BME280;2237;51.870;6.160;2024-02-14T01:50:44;101205.00;;;10.35;100.00
4449;BME280;2237;51.870;6.160;2024-02-14T01:53:12;101181.63;;;10.32;100.00
4449;BME280;2237;51.870;6.160;2024-02-14T01:55:39;101187.78;;;10.26;100.00
4449;BME280;2237;51.870;6.160;2024-02-14T01:58:06;101194.72;;;10.26;100.00
4449;BME280;2237;51.870;6.160;2024-02-14T02:00:33;101194.72;;;10.27;100.00
4449;BME280;2237;51.870;6.160;2024-02-14T02:03:00;101189.47;;;10.30;100.00
4449;BME280;2237;51.870;6.160;2024-02-14T02:05:27;101193.06;;;10.20;100.00
4449;BME280;2237;51.870;6.160;2024-02-14T02:07:53;101191.31;;;10.22;100.00
4449;BME280;2237;51.870;6.160;2024-02-14T02:10:20;101184.13;;;10.36;100.00
4449;BME280;2237;51.870;6.160;2024-02-14T02:12:48;101187.66;;;10.35;100.00
4449;BME280;2237;51.870;6.160;2024-02-14T02:15:17;101195.47;;;10.34;100.00
4449;BME280;2237;51.870;6.160;2024-02-14T02:17:44;101180.75;;;10.31;100.00
4449;BME280;2237;51.870;6.160;2024-02-14T02:20:12;101168.59;;;10.33;100.00
4449;BME280;2237;51.870;6.160;2024-02-14T02:22:45;101179.84;;;10.34;100.00
4449;BME280;2237;51.870;6.160;2024-02-14T02:25:13;101175.41;;;10.42;100.00
4449;BME280;2237;51.870;6.160;2024-02-14T02:27:39;101175.41;;;10.42;100.00
4449;BME280;2237;51.870;6.160;2024-02-14T02:30:07;101185.78;;;10.43;100.00
4449;BME280;2237;51.870;6.160;2024-02-14T02:32:34;101176.28;;;10.39;100.00
4449;BME280;2237;51.870;6.160;2024-02-14T02:35:01;101177.03;;;10.47;100.00
4449;BME280;2237;51.870;6.160;2024-02-14T02:37:28;101184.91;;;10.43;100.00
4449;BME280;2237;51.870;6.160;2024-02-14T02:39:56;101191.66;;;10.56;100.00
4449;BME280;2237;51.870;6.160;2024-02-14T02:42:23;101190.06;;;10.47;100.00
4449;BME280;2237;51.870;6.160;2024-02-14T02:44:53;101184.81;;;10.49;100.00
4449;BME280;2237;51.870;6.160;2024-02-14T02:47:19;101194.38;;;10.48;100.00
4449;BME280;2237;51.870;6.160;2024-02-14T02:49:46;101181.28;;;10.53;100.00
4449;BME280;2237;51.870;6.160;2024-02-14T02:52:12;101187.47;;;10.47;100.00
4449;BME280;2237;51.870;6.160;2024-02-14T02:54:39;101192.56;;;10.53;100.00
4449;BME280;2237;51.870;6.160;2024-02-14T02:57:10;101183.03;;;10.52;100.00
4449;BME280;2237;51.870;6.160;2024-02-14T02:59:37;101185.63;;;10.52;100.00
4449;BME280;2237;51.870;6.160;2024-02-14T03:02:05;101181.28;;;10.53;100.00
4449;BME280;2237;51.870;6.160;2024-02-14T03:04:34;101178.63;;;10.54;100.00
4449;BME280;2237;51.870;6.160;2024-02-14T03:07:17;101183.91;;;10.51;100.00
4449;BME280;2237;51.870;6.160;2024-02-14T03:09:44;101173.34;;;10.60;100.00
4449;BME280;2237;51.870;6.160;2024-02-14T03:12:10;101189.78;;;10.64;100.00
4449;BME280;2237;51.870;6.160;2024-02-14T03:14:37;101188.13;;;10.58;100.00
4449;BME280;2237;51.870;6.160;2024-02-14T03:17:04;101189.91;;;10.56;100.00
4449;BME280;2237;51.870;6.160;2024-02-14T03:19:31;101180.47;;;10.49;100.00
4449;BME280;2237;51.870;6.160;2024-02-14T03:21:59;101185.50;;;10.60;100.00
4449;BME280;2237;51.870;6.160;2024-02-14T03:24:26;101190.69;;;10.61;100.00
4449;BME280;2237;51.870;6.160;2024-02-14T03:26:52;101195.91;;;10.61;100.00
4449;BME280;2237;51.870;6.160;2024-02-14T03:29:21;101194.31;;;10.51;100.00
4449;BME280;2237;51.870;6.160;2024-02-14T03:31:47;101187.47;;;10.47;100.00
4449;BME280;2237;51.870;6.160;2024-02-14T03:34:14;101191.56;;;10.62;100.00
4449;BME280;2237;51.870;6.160;2024-02-14T03:36:41;101197.59;;;10.62;100.00
4449;BME280;2237;51.870;6.160;2024-02-14T03:39:09;101196.78;;;10.60;100.00
4449;BME280;2237;51.870;6.160;2024-02-14T03:41:36;101198.50;;;10.61;100.00
4449;BME280;2237;51.870;6.160;2024-02-14T03:44:03;101205.53;;;10.55;100.00
4449;BME280;2237;51.870;6.160;2024-02-14T03:46:30;101212.38;;;10.62;100.00
4449;BME280;2237;51.870;6.160;2024-02-14T03:48:56;101200.28;;;10.58;100.00
4449;BME280;2237;51.870;6.160;2024-02-14T03:51:24;101209.59;;;10.72;100.00
4449;BME280;2237;51.870;6.160;2024-02-14T03:53:50;101204.38;;;10.72;100.00
4449;BME280;2237;51.870;6.160;2024-02-14T03:56:17;101214.63;;;10.83;100.00
4449;BME280;2237;51.870;6.160;2024-02-14T03:58:44;101207.81;;;10.74;100.00
4449;BME280;2237;51.870;6.160;2024-02-14T04:01:10;101199.88;;;10.82;100.00
4449;BME280;2237;51.870;6.160;2024-02-14T04:03:36;101214.59;;;10.85;100.00
4449;BME280;2237;51.870;6.160;2024-02-14T04:06:03;101210.22;;;10.88;100.00
4449;BME280;2237;51.870;6.160;2024-02-14T04:08:30;101208.44;;;10.89;100.00
4449;BME280;2237;51.870;6.160;2024-02-14T04:10:57;101205.72;;;10.95;100.00
4449;BME280;2237;51.870;6.160;2024-02-14T04:13:23;101211.00;;;10.92;100.00
4449;BME280;2237;51.870;6.160;2024-02-14T04:15:50;101202.44;;;10.84;100.00
4449;BME280;2237;51.870;6.160;2024-02-14T04:18:16;101223.09;;;10.94;100.00
4449;BME280;2237;51.870;6.160;2024-02-14T04:20:44;101213.59;;;10.93;100.00
4449;BME280;2237;51.870;6.160;2024-02-14T04:23:11;101218.69;;;10.99;100.00
4449;BME280;2237;51.870;6.160;2024-02-14T04:25:38;101217.81;;;10.99;100.00
4449;BME280;2237;51.870;6.160;2024-02-14T04:28:05;101224.94;;;10.91;100.00
4449;BME280;2237;51.870;6.160;2024-02-14T04:30:32;101232.69;;;10.92;100.00
4449;BME280;2237;51.870;6.160;2024-02-14T04:32:58;101227.38;;;11.00;100.00
4449;BME280;2237;51.870;6.160;2024-02-14T04:35:25;101214.41;;;10.97;100.00
4449;BME280;2237;51.870;6.160;2024-02-14T04:37:52;101230.69;;;11.08;100.00
4449;BME280;2237;51.870;6.160;2024-02-14T04:40:19;101229.78;;;11.09;100.00
4449;BME280;2237;51.870;6.160;2024-02-14T04:42:46;101229.84;;;11.07;100.00
4449;BME280;2237;51.870;6.160;2024-02-14T04:45:12;101222.78;;;11.12;100.00
4449;BME280;2237;51.870;6.160;2024-02-14T04:47:40;101231.47;;;11.13;100.00
4449;BME280;2237;51.870;6.160;2024-02-14T04:50:06;101234.84;;;11.18;100.00
4449;BME280;2237;51.870;6.160;2024-02-14T04:52:33;101234.94;;;11.12;100.00
4449;BME280;2237;51.870;6.160;2024-02-14T04:54:59;101242.75;;;11.13;100.00
4449;BME280;2237;51.870;6.160;2024-02-14T04:57:26;101255.81;;;11.12;100.00
4449;BME280;2237;51.870;6.160;2024-02-14T04:59:53;101253.25;;;11.09;100.00
4449;BME280;2237;51.870;6.160;2024-02-14T05:02:19;101246.19;;;11.17;100.00
4449;BME280;2237;51.870;6.160;2024-02-14T05:04:46;101255.69;;;11.18;100.00
4449;BME280;2237;51.870;6.160;2024-02-14T05:07:12;101253.94;;;11.20;100.00
4449;BME280;2237;51.870;6.160;2024-02-14T05:09:39;101250.44;;;11.21;100.00
4449;BME280;2237;51.870;6.160;2024-02-14T05:12:06;101254.06;;;11.12;100.00
4449;BME280;2237;51.870;6.160;2024-02-14T05:14:38;101267.03;;;11.17;100.00
4449;BME280;2237;51.870;6.160;2024-02-14T05:17:05;101254.00;;;11.17;100.00
4449;BME280;2237;51.870;6.160;2024-02-14T05:19:31;101267.13;;;11.11;100.00
4449;BME280;2237;51.870;6.160;2024-02-14T05:21:59;101269.84;;;11.05;100.00
4449;BME280;2237;51.870;6.160;2024-02-14T05:24:25;101270.59;;;11.11;100.00
4449;BME280;2237;51.870;6.160;2024-02-14T05:26:53;101276.69;;;11.10;100.00
4449;BME280;2237;51.870;6.160;2024-02-14T05:29:20;101269.75;;;11.09;100.00
4449;BME280;2237;51.870;6.160;2024-02-14T05:31:47;101263.72;;;11.07;100.00
4449;BME280;2237;51.870;6.160;2024-02-14T05:34:15;101266.13;;;11.18;100.00
4449;BME280;2237;51.870;6.160;2024-02-14T05:36:42;101278.28;;;11.19;100.00
4449;BME280;2237;51.870;6.160;2024-02-14T05:39:13;101277.25;;;11.27;100.00
4449;BME280;2237;51.870;6.160;2024-02-14T05:41:40;101273.03;;;11.20;100.00
4449;BME280;2237;51.870;6.160;2024-02-14T05:44:07;101277.38;;;11.21;100.00
4449;BME280;2237;51.870;6.160;2024-02-14T05:46:33;101282.50;;;11.26;100.00
4449;BME280;2237;51.870;6.160;2024-02-14T05:48:59;101272.13;;;11.23;100.00
4449;BME280;2237;51.870;6.160;2024-02-14T05:51:26;101289.47;;;11.25;100.00
4449;BME280;2237;51.870;6.160;2024-02-14T05:53:53;101281.66;;;11.25;100.00
4449;BME280;2237;51.870;6.160;2024-02-14T05:56:19;101283.41;;;11.23;100.00
4449;BME280;2237;51.870;6.160;2024-02-14T05:58:46;101293.03;;;11.20;100.00
4449;BME280;2237;51.870;6.160;2024-02-14T06:01:12;101293.88;;;11.20;100.00
4449;BME280;2237;51.870;6.160;2024-02-14T06:03:41;101287.75;;;11.24;100.00
4449;BME280;2237;51.870;6.160;2024-02-14T06:06:08;101287.72;;;11.26;100.00
4449;BME280;2237;51.870;6.160;2024-02-14T06:08:34;101295.41;;;11.32;100.00
4449;BME280;2237;51.870;6.160;2024-02-14T06:11:01;101289.47;;;11.24;100.00
4449;BME280;2237;51.870;6.160;2024-02-14T06:13:27;101293.81;;;11.25;100.00
4449;BME280;2237;51.870;6.160;2024-02-14T06:15:54;101293.88;;;11.22;100.00
4449;BME280;2237;51.870;6.160;2024-02-14T06:18:20;101301.69;;;11.22;100.00
4449;BME280;2237;51.870;6.160;2024-02-14T06:20:47;101291.94;;;11.33;100.00
4449;BME280;2237;51.870;6.160;2024-02-14T06:23:13;101305.97;;;11.26;100.00
4449;BME280;2237;51.870;6.160;2024-02-14T06:25:40;101304.19;;;11.28;100.00
4449;BME280;2237;51.870;6.160;2024-02-14T06:28:06;101308.59;;;11.24;100.00
4449;BME280;2237;51.870;6.160;2024-02-14T06:30:33;101316.56;;;11.17;100.00
4449;BME280;2237;51.870;6.160;2024-02-14T06:32:59;101310.34;;;11.24;100.00
4449;BME280;2237;51.870;6.160;2024-02-14T06:35:29;101319.84;;;11.28;100.00
4449;BME280;2237;51.870;6.160;2024-02-14T06:37:56;101311.91;;;11.32;100.00
4449;BME280;2237;51.870;6.160;2024-02-14T06:40:30;101316.22;;;11.37;100.00
4449;BME280;2237;51.870;6.160;2024-02-14T06:42:56;101322.44;;;11.28;100.00
4449;BME280;2237;51.870;6.160;2024-02-14T06:45:24;101327.72;;;11.23;100.00
4449;BME280;2237;51.870;6.160;2024-02-14T06:47:51;101332.94;;;11.25;100.00
4449;BME280;2237;51.870;6.160;2024-02-14T06:50:18;101332.88;;;11.28;100.00
4449;BME280;2237;51.870;6.160;2024-02-14T06:52:44;101324.13;;;11.30;100.00
4449;BME280;2237;51.870;6.160;2024-02-14T06:55:10;101338.00;;;11.32;100.00
4449;BME280;2237;51.870;6.160;2024-02-14T06:57:38;101337.06;;;11.37;100.00
4449;BME280;2237;51.870;6.160;2024-02-14T07:00:05;101328.31;;;11.39;100.00
4449;BME280;2237;51.870;6.160;2024-02-14T07:02:33;101342.34;;;11.32;100.00
4449;BME280;2237;51.870;6.160;2024-02-14T07:05:00;101340.59;;;11.34;100.00
4449;BME280;2237;51.870;6.160;2024-02-14T07:07:26;101345.00;;;11.29;100.00
4449;BME280;2237;51.870;6.160;2024-02-14T07:09:54;101340.66;;;11.31;100.00
4449;BME280;2237;51.870;6.160;2024-02-14T07:12:20;101354.50;;;11.33;100.00
4449;BME280;2237;51.870;6.160;2024-02-14T07:14:47;101344.13;;;11.31;100.00
4449;BME280;2237;51.870;6.160;2024-02-14T07:17:13;101348.41;;;11.34;100.00
4449;BME280;2237;51.870;6.160;2024-02-14T07:19:40;101351.94;;;11.31;100.00
4449;BME280;2237;51.870;6.160;2024-02-14T07:22:09;101357.00;;;11.39;100.00
4449;BME280;2237;51.870;6.160;2024-02-14T07:24:35;101361.41;;;11.37;100.00
4449;BME280;2237;51.870;6.160;2024-02-14T07:27:02;101362.19;;;11.41;100.00
4449;BME280;2237;51.870;6.160;2024-02-14T07:29:29;101364.75;;;11.45;100.00
4449;BME280;2237;51.870;6.160;2024-02-14T07:31:55;101361.31;;;11.43;100.00
4449;BME280;2237;51.870;6.160;2024-02-14T07:34:25;101352.41;;;11.53;100.00
4449;BME280;2237;51.870;6.160;2024-02-14T07:36:52;101353.47;;;11.43;100.00
4449;BME280;2237;51.870;6.160;2024-02-14T07:39:18;101357.72;;;11.49;100.00
4449;BME280;2237;51.870;6.160;2024-02-14T07:41:45;101350.69;;;11.52;100.00
4449;BME280;2237;51.870;6.160;2024-02-14T07:44:12;101359.38;;;11.54;100.00
4449;BME280;2237;51.870;6.160;2024-02-14T07:46:39;101357.41;;;11.65;100.00
4449;BME280;2237;51.870;6.160;2024-02-14T07:49:06;101360.91;;;11.64;100.00
4449;BME280;2237;51.870;6.160;2024-02-14T07:51:33;101363.59;;;11.60;100.00
4449;BME280;2237;51.870;6.160;2024-02-14T07:54:06;101359.31;;;11.57;100.00
4449;BME280;2237;51.870;6.160;2024-02-14T07:56:33;101366.00;;;11.73;100.00
4449;BME280;2237;51.870;6.160;2024-02-14T07:58:59;101361.59;;;11.75;100.00
4449;BME280;2237;51.870;6.160;2024-02-14T08:01:26;101373.75;;;11.76;100.00
4449;BME280;2237;51.870;6.160;2024-02-14T08:03:53;101371.16;;;11.76;100.00
4449;BME280;2237;51.870;6.160;2024-02-14T08:06:20;101373.00;;;11.71;100.00
4449;BME280;2237;51.870;6.160;2024-02-14T08:08:46;101372.19;;;11.65;100.00
4449;BME280;2237;51.870;6.160;2024-02-14T08:11:15;101369.41;;;11.75;100.00
4449;BME280;2237;51.870;6.160;2024-02-14T08:13:41;101368.66;;;11.72;100.00
4449;BME280;2237;51.870;6.160;2024-02-14T08:16:08;101360.72;;;11.78;100.00
4449;BME280;2237;51.870;6.160;2024-02-14T08:18:34;101377.81;;;11.93;100.00
4449;BME280;2237;51.870;6.160;2024-02-14T08:21:01;101371.69;;;11.95;100.00
4449;BME280;2237;51.870;6.160;2024-02-14T08:23:28;101374.41;;;11.89;100.00
4449;BME280;2237;51.870;6.160;2024-02-14T08:25:55;101386.25;;;12.07;100.00
4449;BME280;2237;51.870;6.160;2024-02-14T08:28:21;101376.56;;;12.10;100.00
4449;BME280;2237;51.870;6.160;2024-02-14T08:30:47;101376.81;;;12.00;100.00
4449;BME280;2237;51.870;6.160;2024-02-14T08:33:14;101379.47;;;11.98;100.00
4449;BME280;2237;51.870;6.160;2024-02-14T08:35:41;101390.72;;;12.00;100.00
4449;BME280;2237;51.870;6.160;2024-02-14T08:38:09;101385.38;;;12.06;100.00
4449;BME280;2237;51.870;6.160;2024-02-14T08:40:36;101388.94;;;12.02;100.00
4449;BME280;2237;51.870;6.160;2024-02-14T08:43:03;101389.91;;;11.98;100.00
4449;BME280;2237;51.870;6.160;2024-02-14T08:45:30;101394.19;;;12.01;100.00
4449;BME280;2237;51.870;6.160;2024-02-14T08:47:57;101392.56;;;11.95;100.00
4449;BME280;2237;51.870;6.160;2024-02-14T08:50:24;101390.81;;;11.96;100.00
4449;BME280;2237;51.870;6.160;2024-02-14T08:52:50;101396.00;;;11.97;100.00
4449;BME280;2237;51.870;6.160;2024-02-14T08:55:17;101399.44;;;11.99;100.00
4449;BME280;2237;51.870;6.160;2024-02-14T08:57:44;101391.59;;;12.01;100.00
4449;BME280;2237;51.870;6.160;2024-02-14T09:00:11;101395.13;;;11.97;100.00
4449;BME280;2237;51.870;6.160;2024-02-14T09:02:46;101399.53;;;11.95;100.00
4449;BME280;2237;51.870;6.160;2024-02-14T09:05:16;101394.31;;;11.93;100.00
4449;BME280;2237;51.870;6.160;2024-02-14T09:07:43;101410.84;;;11.95;100.00
4449;BME280;2237;51.870;6.160;2024-02-14T09:10:10;101403.78;;;11.99;100.00
4449;BME280;2237;51.870;6.160;2024-02-14T09:12:39;101410.78;;;11.97;100.00
4449;BME280;2237;51.870;6.160;2024-02-14T09:15:08;101406.09;;;12.14;100.00
4449;BME280;2237;51.870;6.160;2024-02-14T09:17:35;101400.06;;;12.12;100.00
4449;BME280;2237;51.870;6.160;2024-02-14T09:20:01;101406.91;;;12.17;100.00
4449;BME280;2237;51.870;6.160;2024-02-14T09:22:28;101399.19;;;12.13;100.00
4449;BME280;2237;51.870;6.160;2024-02-14T09:24:55;101410.47;;;12.13;100.00
4449;BME280;2237;51.870;6.160;2024-02-14T09:27:23;101413.94;;;12.14;100.00
4449;BME280;2237;51.870;6.160;2024-02-14T09:29:50;101407.91;;;12.10;100.00
4449;BME280;2237;51.870;6.160;2024-02-14T09:32:16;101419.16;;;12.14;100.00
4449;BME280;2237;51.870;6.160;2024-02-14T09:34:43;101414.03;;;12.09;100.00
4449;BME280;2237;51.870;6.160;2024-02-14T09:37:09;101422.63;;;12.16;100.00
4449;BME280;2237;51.870;6.160;2024-02-14T09:39:36;101429.44;;;12.23;100.00
4449;BME280;2237;51.870;6.160;2024-02-14T09:42:08;101430.28;;;12.23;100.00
4449;BME280;2237;51.870;6.160;2024-02-14T09:44:36;101432.88;;;12.25;100.00
4449;BME280;2237;51.870;6.160;2024-02-14T09:47:05;101434.66;;;12.23;100.00
4449;BME280;2237;51.870;6.160;2024-02-14T09:49:34;101434.53;;;12.29;100.00
4449;BME280;2237;51.870;6.160;2024-02-14T09:52:02;101444.97;;;12.30;100.00
4449;BME280;2237;51.870;6.160;2024-02-14T09:54:31;101441.56;;;12.27;100.00
4449;BME280;2237;51.870;6.160;2024-02-14T09:56:58;101444.06;;;12.33;100.00
4449;BME280;2237;51.870;6.160;2024-02-14T09:59:25;101440.56;;;12.32;100.00
4449;BME280;2237;51.870;6.160;2024-02-14T10:01:52;101442.25;;;12.35;100.00
4449;BME280;2237;51.870;6.160;2024-02-14T10:04:19;101444.81;;;12.38;100.00
4449;BME280;2237;51.870;6.160;2024-02-14T10:06:48;101442.03;;;12.45;100.00
4449;BME280;2237;51.870;6.160;2024-02-14T10:09:22;101442.03;;;12.45;100.00
4449;BME280;2237;51.870;6.160;2024-02-14T10:11:49;101451.72;;;12.42;100.00
4449;BME280;2237;51.870;6.160;2024-02-14T10:14:16;101456.06;;;12.41;100.00
4449;BME280;2237;51.870;6.160;2024-02-14T10:16:42;101453.22;;;12.52;100.00
4449;BME280;2237;51.870;6.160;2024-02-14T10:19:16;101451.63;;;12.45;100.00
4449;BME280;2237;51.870;6.160;2024-02-14T10:22:31;101458.56;;;12.46;100.00
4449;BME280;2237;51.870;6.160;2024-02-14T10:24:58;101454.91;;;12.56;100.00
4449;BME280;2237;51.870;6.160;2024-02-14T10:27:25;101458.16;;;12.66;100.00
4449;BME280;2237;51.870;6.160;2024-02-14T10:29:55;101461.69;;;12.63;100.00
4449;BME280;2237;51.870;6.160;2024-02-14T10:32:23;101462.34;;;12.74;100.00
4449;BME280;2237;51.870;6.160;2024-02-14T10:34:50;101449.19;;;12.77;100.00
4449;BME280;2237;51.870;6.160;2024-02-14T10:37:18;101448.88;;;12.92;100.00
4449;BME280;2237;51.870;6.160;2024-02-14T10:39:47;101455.84;;;12.93;100.00
4449;BME280;2237;51.870;6.160;2024-02-14T10:42:18;101463.63;;;12.96;100.00
4449;BME280;2237;51.870;6.160;2024-02-14T10:44:45;101466.03;;;13.06;100.00
4449;BME280;2237;51.870;6.160;2024-02-14T10:47:19;101457.91;;;13.18;100.00
4449;BME280;2237;51.870;6.160;2024-02-14T10:49:48;101459.38;;;13.29;100.00
4449;BME280;2237;51.870;6.160;2024-02-14T10:52:16;101452.25;;;13.37;100.00
4449;BME280;2237;51.870;6.160;2024-02-14T10:54:43;101459.22;;;13.37;100.00
4449;BME280;2237;51.870;6.160;2024-02-14T10:57:15;101455.34;;;13.53;100.00
4449;BME280;2237;51.870;6.160;2024-02-14T10:59:44;101457.47;;;13.73;100.00
4449;BME280;2237;51.870;6.160;2024-02-14T11:02:13;101458.38;;;13.72;100.00
4449;BME280;2237;51.870;6.160;2024-02-14T11:04:40;101463.19;;;13.53;100.00
4449;BME280;2237;51.870;6.160;2024-02-14T11:07:10;101464.75;;;13.60;100.00
4449;BME280;2237;51.870;6.160;2024-02-14T11:09:37;101459.22;;;13.72;100.00
4449;BME280;2237;51.870;6.160;2024-02-14T11:12:08;101460.69;;;13.82;100.00
4449;BME280;2237;51.870;6.160;2024-02-14T11:14:37;101453.84;;;13.78;100.00
4449;BME280;2237;51.870;6.160;2024-02-14T11:17:09;101462.16;;;13.60;100.00
4449;BME280;2237;51.870;6.160;2024-02-14T11:19:36;101454.06;;;13.69;100.00
4449;BME280;2237;51.870;6.160;2024-02-14T11:22:11;101453.84;;;13.78;100.00
4449;BME280;2237;51.870;6.160;2024-02-14T11:24:41;101453.84;;;13.78;100.00
4449;BME280;2237;51.870;6.160;2024-02-14T11:27:11;101452.28;;;13.71;100.00
4449;BME280;2237;51.870;6.160;2024-02-14T11:29:59;101456.91;;;13.60;100.00
4449;BME280;2237;51.870;6.160;2024-02-14T11:32:27;101448.78;;;13.71;100.00
4449;BME280;2237;51.870;6.160;2024-02-14T11:34:54;101439.81;;;13.81;100.00
4449;BME280;2237;51.870;6.160;2024-02-14T11:37:28;101442.28;;;13.87;100.00
4449;BME280;2237;51.870;6.160;2024-02-14T11:39:56;101444.91;;;13.85;100.00
4449;BME280;2237;51.870;6.160;2024-02-14T11:42:24;101437.13;;;13.84;100.00
4449;BME280;2237;51.870;6.160;2024-02-14T11:44:52;101431.88;;;13.84;100.00
4449;BME280;2237;51.870;6.160;2024-02-14T11:47:22;101427.09;;;13.99;100.00
4449;BME280;2237;51.870;6.160;2024-02-14T11:49:49;101430.06;;;13.86;100.00
4449;BME280;2237;51.870;6.160;2024-02-14T11:52:17;101429.78;;;13.96;100.00
4449;BME280;2237;51.870;6.160;2024-02-14T11:54:47;101429.38;;;13.79;100.00
4449;BME280;2237;51.870;6.160;2024-02-14T11:57:17;101430.13;;;13.84;100.00
4449;BME280;2237;51.870;6.160;2024-02-14T11:59:44;101433.16;;;13.68;100.00
4449;BME280;2237;51.870;6.160;2024-02-14T12:02:14;101442.66;;;13.72;100.00
4449;BME280;2237;51.870;6.160;2024-02-14T12:04:42;101436.25;;;13.83;100.00
4449;BME280;2237;51.870;6.160;2024-02-14T12:07:09;101451.25;;;13.77;100.00
4449;BME280;2237;51.870;6.160;2024-02-14T12:09:36;101436.72;;;13.65;100.00
4449;BME280;2237;51.870;6.160;2024-02-14T12:12:04;101429.59;;;13.70;100.00
4449;BME280;2237;51.870;6.160;2024-02-14T12:14:32;101426.97;;;13.72;100.00
4449;BME280;2237;51.870;6.160;2024-02-14T12:16:59;101436.63;;;13.68;100.00
4449;BME280;2237;51.870;6.160;2024-02-14T12:19:29;101432.81;;;13.81;100.00
4449;BME280;2237;51.870;6.160;2024-02-14T12:21:59;101435.38;;;13.83;100.00
4449;BME280;2237;51.870;6.160;2024-02-14T12:24:28;101436.13;;;13.88;100.00
4449;BME280;2237;51.870;6.160;2024-02-14T12:26:55;101418.34;;;14.00;100.00
4449;BME280;2237;51.870;6.160;2024-02-14T12:29:23;101431.72;;;13.90;100.00
4449;BME280;2237;51.870;6.160;2024-02-14T12:31:50;101429.69;;;13.99;100.00
4449;BME280;2237;51.870;6.160;2024-02-14T12:34:16;101432.63;;;13.87;100.00
4449;BME280;2237;51.870;6.160;2024-02-14T12:36:49;101427.31;;;13.90;100.00
4449;BME280;2237;51.870;6.160;2024-02-14T12:39:15;101421.34;;;13.87;100.00
4449;BME280;2237;51.870;6.160;2024-02-14T12:41:42;101418.97;;;13.76;100.00
4449;BME280;2237;51.870;6.160;2024-02-14T12:44:09;101412.19;;;13.69;100.00
4449;BME280;2237;51.870;6.160;2024-02-14T12:46:35;101418.88;;;13.81;100.00
4449;BME280;2237;51.870;6.160;2024-02-14T12:49:04;101424.22;;;13.76;100.00
4449;BME280;2237;51.870;6.160;2024-02-14T12:51:31;101413.28;;;13.61;100.00
4449;BME280;2237;51.870;6.160;2024-02-14T12:53:58;101416.63;;;13.66;100.00
4449;BME280;2237;51.870;6.160;2024-02-14T12:56:25;101407.13;;;13.63;100.00
4449;BME280;2237;51.870;6.160;2024-02-14T12:58:52;101416.78;;;13.61;100.00
4449;BME280;2237;51.870;6.160;2024-02-14T13:01:18;101418.28;;;13.70;100.00